createdAt,value
2023-03-07T00:01:09.635Z,96593.00
2023-03-07T00:06:31.685Z,96588.00
2023-03-07T00:11:53.310Z,96586.00
2023-03-07T00:17:15.068Z,96582.00
2023-03-07T00:22:37.261Z,96590.00
2023-03-07T00:27:58.929Z,96585.00
2023-03-07T00:33:20.561Z,96580.00
2023-03-07T00:38:42.473Z,96576.00
2023-03-07T00:44:04.070Z,96572.00
2023-03-07T00:49:26.092Z,96547.00
2023-03-07T00:54:47.915Z,96554.00
2023-03-07T01:00:11.077Z,96542.00
2023-03-07T01:05:32.710Z,96534.00
2023-03-07T01:11:00.192Z,96520.00
2023-03-07T01:16:25.818Z,96519.00
2023-03-07T01:21:47.404Z,96511.00
2023-03-07T01:27:10.570Z,96497.00
2023-03-07T01:32:32.698Z,96493.00
2023-03-07T01:37:55.502Z,96483.00
2023-03-07T01:43:36.005Z,96476.00
2023-03-07T01:49:24.739Z,96457.00
2023-03-07T01:55:00.184Z,96453.00
2023-03-07T02:00:30.007Z,96443.00
2023-03-07T02:05:59.234Z,96438.00
2023-03-07T02:11:21.291Z,96441.00
2023-03-07T02:16:43.210Z,96439.00
2023-03-07T02:22:18.442Z,96431.00
2023-03-07T02:27:41.376Z,96410.00
2023-03-07T02:33:03.328Z,96395.00
2023-03-07T02:38:25.456Z,96393.00
2023-03-07T02:43:47.288Z,96398.00
2023-03-07T02:49:08.950Z,96384.00
2023-03-07T02:54:31.234Z,96383.00
2023-03-07T02:59:53.694Z,96389.00
2023-03-07T03:05:15.385Z,96374.00
2023-03-07T03:10:36.871Z,96358.00
2023-03-07T03:15:59.924Z,96355.00
2023-03-07T03:21:21.791Z,96354.00
2023-03-07T03:26:43.350Z,96345.00
2023-03-07T03:32:05.335Z,96337.00
2023-03-07T03:37:27.375Z,96343.00
2023-03-07T03:42:51.074Z,96334.00
2023-03-07T03:48:14.266Z,96317.00
2023-03-07T03:53:39.693Z,96310.00
2023-03-07T03:59:01.378Z,96307.00
2023-03-07T04:04:23.680Z,96306.00
2023-03-07T04:09:45.731Z,96296.00
2023-03-07T04:15:08.085Z,96280.00
2023-03-07T04:20:30.004Z,96277.00
2023-03-07T04:25:56.444Z,96265.00
2023-03-07T04:31:27.971Z,96264.00
2023-03-07T04:36:51.657Z,96262.00
2023-03-07T04:42:13.288Z,96243.00
2023-03-07T04:47:35.025Z,96237.00
2023-03-07T04:52:57.166Z,96229.00
2023-03-07T04:58:19.542Z,96233.00
2023-03-07T05:03:41.754Z,96228.00
2023-03-07T05:09:03.971Z,96238.00
2023-03-07T05:14:26.228Z,96236.00
2023-03-07T05:19:48.089Z,96228.00
2023-03-07T05:25:10.194Z,96234.00
2023-03-07T05:30:32.261Z,96218.00
2023-03-07T05:35:55.758Z,96209.00
2023-03-07T05:41:18.145Z,96221.00
2023-03-07T05:46:39.973Z,96219.00
2023-03-07T05:52:01.636Z,96218.00
2023-03-07T05:57:23.705Z,96230.00
2023-03-07T06:02:45.901Z,96235.00
2023-03-07T06:08:09.448Z,96223.00
2023-03-07T06:13:31.366Z,96218.00
2023-03-07T06:18:52.651Z,96214.00
2023-03-07T06:24:14.696Z,96218.00
2023-03-07T06:29:37.953Z,96205.00
2023-03-07T06:34:59.626Z,96216.00
2023-03-07T06:40:22.729Z,96229.00
2023-03-07T06:45:44.339Z,96238.00
2023-03-07T06:51:09.530Z,96217.00
2023-03-07T06:56:34.938Z,96227.00
2023-03-07T07:01:57.413Z,96238.00
2023-03-07T07:07:20.113Z,96218.00
2023-03-07T07:12:42.146Z,96211.00
2023-03-07T07:18:04.456Z,96207.00
2023-03-07T07:23:27.727Z,96206.00
2023-03-07T07:28:49.415Z,96219.00
2023-03-07T07:34:11.133Z,96212.00
2023-03-07T07:39:33.006Z,96209.00
2023-03-07T07:44:54.972Z,96220.00
2023-03-07T07:50:18.074Z,96201.00
2023-03-07T07:55:39.657Z,96199.00
2023-03-07T08:01:01.313Z,96190.00
2023-03-07T08:06:25.502Z,96186.00
2023-03-07T08:11:47.173Z,96197.00
2023-03-07T08:17:09.007Z,96218.00
2023-03-07T08:22:30.625Z,96203.00
2023-03-07T08:27:55.285Z,96201.00
2023-03-07T08:33:16.786Z,96197.00
2023-03-07T08:38:38.532Z,96201.00
2023-03-07T08:44:00.245Z,96209.00
2023-03-07T08:49:21.731Z,96211.00
2023-03-07T08:54:43.440Z,96203.00
2023-03-07T09:00:08.902Z,96210.00
2023-03-07T09:05:30.920Z,96203.00
2023-03-07T09:10:53.107Z,96200.00
2023-03-07T09:16:14.583Z,96205.00
2023-03-07T09:21:36.050Z,96195.00
2023-03-07T09:26:57.859Z,96205.00
2023-03-07T09:32:19.411Z,96186.00
2023-03-07T09:37:41.230Z,96177.00
2023-03-07T09:43:15.380Z,96168.00
2023-03-07T09:49:10.599Z,96159.00
2023-03-07T09:55:05.197Z,96159.00
2023-03-07T10:00:42.979Z,96148.00
2023-03-07T10:06:16.563Z,96160.00
2023-03-07T10:11:52.081Z,96144.00
2023-03-07T10:17:42.992Z,96132.00
2023-03-07T10:23:33.057Z,96139.00
2023-03-07T10:28:56.882Z,96132.00
2023-03-07T10:34:27.381Z,96125.00
2023-03-07T10:39:56.938Z,96115.00
2023-03-07T10:45:19.001Z,96107.00
2023-03-07T10:50:58.847Z,96125.00
2023-03-07T10:56:20.689Z,96100.00
2023-03-07T11:01:56.902Z,96092.00
2023-03-07T11:07:30.796Z,96080.00
2023-03-07T11:12:52.673Z,96078.00
2023-03-07T11:18:39.647Z,96061.00
2023-03-07T11:24:20.411Z,96051.00
2023-03-07T11:29:42.073Z,96057.00
2023-03-07T11:35:15.400Z,96051.00
2023-03-07T11:40:56.986Z,96034.00
2023-03-07T11:46:24.504Z,96049.00
2023-03-07T11:52:16.644Z,96041.00
2023-03-07T11:58:03.150Z,96044.00
2023-03-07T12:03:58.003Z,96047.00
2023-03-07T12:09:45.363Z,96033.00
2023-03-07T12:15:06.578Z,96029.00
2023-03-07T12:20:51.948Z,96022.00
2023-03-07T12:26:42.918Z,96034.00
2023-03-07T12:32:16.833Z,96035.00
2023-03-07T12:37:44.600Z,96027.00
2023-03-07T12:43:15.464Z,96026.00
2023-03-07T12:48:49.009Z,96032.00
2023-03-07T12:54:21.442Z,96041.00
2023-03-07T12:59:45.233Z,96038.00
2023-03-07T13:05:07.014Z,96030.00
2023-03-07T13:10:28.881Z,96021.00
2023-03-07T13:16:07.052Z,96037.00
2023-03-07T13:21:33.025Z,96043.00
2023-03-07T13:26:56.014Z,96030.00
2023-03-07T13:32:51.397Z,96028.00
2023-03-07T13:38:31.154Z,96022.00
2023-03-07T13:44:00.034Z,96023.00
2023-03-07T13:49:42.254Z,96027.00
2023-03-07T13:55:16.918Z,96008.00
2023-03-07T14:00:41.909Z,96014.00
2023-03-07T14:06:31.147Z,96027.00
2023-03-07T14:12:14.297Z,96013.00
2023-03-07T14:17:46.651Z,96030.00
2023-03-07T14:23:53.364Z,96020.00
2023-03-07T14:29:24.822Z,96028.00
2023-03-07T14:34:49.511Z,96031.00
2023-03-07T14:40:32.560Z,96007.00
2023-03-07T14:46:02.435Z,96004.00
2023-03-07T14:51:28.229Z,96005.00
2023-03-07T14:56:53.201Z,96005.00
2023-03-07T15:02:18.838Z,96004.00
2023-03-07T15:07:40.493Z,95983.00
2023-03-07T15:13:07.250Z,96007.00
2023-03-07T15:18:35.777Z,95985.00
2023-03-07T15:23:59.295Z,95997.00
2023-03-07T15:29:24.580Z,95996.00
2023-03-07T15:34:46.037Z,95989.00
2023-03-07T15:40:11.162Z,95975.00
2023-03-07T15:45:34.493Z,95989.00
2023-03-07T15:50:59.150Z,95991.00
2023-03-07T15:56:34.604Z,95988.00
2023-03-07T16:01:55.919Z,95981.00
2023-03-07T16:07:18.397Z,95994.00
2023-03-07T16:12:46.634Z,96008.00
2023-03-07T16:18:08.246Z,96007.00
2023-03-07T16:23:31.526Z,96010.00
2023-03-07T16:28:54.438Z,95992.00
2023-03-07T16:34:19.325Z,96006.00
2023-03-07T16:39:41.364Z,96011.00
2023-03-07T16:45:04.926Z,96019.00
2023-03-07T16:50:30.190Z,96045.00
2023-03-07T16:55:53.438Z,96024.00
2023-03-07T17:01:16.148Z,96038.00
2023-03-07T17:06:39.790Z,96035.00
2023-03-07T17:12:01.286Z,96036.00
2023-03-07T17:17:27.834Z,96039.00
2023-03-07T17:22:50.763Z,96036.00
2023-03-07T17:28:15.318Z,96037.00
2023-03-07T17:33:36.779Z,96044.00
2023-03-07T17:38:58.358Z,96039.00
2023-03-07T17:44:20.193Z,96061.00
2023-03-07T17:49:41.925Z,96058.00
2023-03-07T17:55:03.981Z,96066.00
2023-03-07T18:00:26.045Z,96064.00
2023-03-07T18:05:47.573Z,96074.00
2023-03-07T18:11:13.830Z,96087.00
2023-03-07T18:16:35.560Z,96078.00
2023-03-07T18:21:57.221Z,96095.00
2023-03-07T18:27:18.918Z,96088.00
2023-03-07T18:32:40.674Z,96100.00
2023-03-07T18:38:02.281Z,96098.00
2023-03-07T18:43:23.996Z,96110.00
2023-03-07T18:48:46.508Z,96102.00
2023-03-07T18:54:09.199Z,96099.00
2023-03-07T18:59:33.495Z,96104.00
2023-03-07T19:04:55.130Z,96093.00
2023-03-07T19:10:17.097Z,96091.00
2023-03-07T19:15:38.705Z,96089.00
2023-03-07T19:21:00.556Z,96103.00
2023-03-07T19:26:22.810Z,96113.00
2023-03-07T19:31:44.938Z,96104.00
2023-03-07T19:37:06.749Z,96108.00
2023-03-07T19:42:28.242Z,96123.00
2023-03-07T19:47:50.019Z,96117.00
2023-03-07T19:53:11.579Z,96131.00
2023-03-07T19:58:35.523Z,96121.00
2023-03-07T20:03:57.688Z,96131.00
2023-03-07T20:09:19.275Z,96153.00
2023-03-07T20:14:43.202Z,96149.00
2023-03-07T20:20:08.121Z,96150.00
2023-03-07T20:25:30.731Z,96157.00
2023-03-07T20:30:52.255Z,96154.00
2023-03-07T20:36:19.638Z,96156.00
2023-03-07T20:41:43.074Z,96167.00
2023-03-07T20:47:04.738Z,96169.00
2023-03-07T20:52:26.362Z,96190.00
2023-03-07T20:57:49.211Z,96194.00
2023-03-07T21:03:13.649Z,96188.00
2023-03-07T21:08:36.657Z,96195.00
2023-03-07T21:13:58.663Z,96207.00
2023-03-07T21:19:20.263Z,96204.00
2023-03-07T21:24:41.830Z,96210.00
2023-03-07T21:30:04.702Z,96204.00
2023-03-07T21:35:26.682Z,96218.00
2023-03-07T21:40:49.705Z,96227.00
2023-03-07T21:46:13.293Z,96219.00
2023-03-07T21:51:37.619Z,96222.00
2023-03-07T21:56:59.107Z,96250.00
2023-03-07T22:02:23.114Z,96256.00
2023-03-07T22:07:45.067Z,96246.00
2023-03-07T22:13:07.036Z,96257.00
2023-03-07T22:18:29.114Z,96269.00
2023-03-07T22:23:50.442Z,96274.00
2023-03-07T22:29:12.144Z,96283.00
2023-03-07T22:34:33.712Z,96274.00
2023-03-07T22:39:55.245Z,96277.00
2023-03-07T22:45:16.781Z,96279.00
2023-03-07T22:50:39.533Z,96285.00
2023-03-07T22:56:01.679Z,96298.00
2023-03-07T23:01:26.374Z,96290.00
2023-03-07T23:06:47.830Z,96297.00
2023-03-07T23:12:09.540Z,96318.00
2023-03-07T23:17:31.170Z,96321.00
2023-03-07T23:22:53.396Z,96324.00
2023-03-07T23:28:14.991Z,96327.00
2023-03-07T23:33:36.520Z,96330.00
2023-03-07T23:38:59.954Z,96325.00
2023-03-07T23:44:21.443Z,96340.00
2023-03-07T23:49:43.271Z,96335.00
2023-03-07T23:55:05.436Z,96344.00
